sensor_id;sensor_type;location;lat;lon;timestamp;pressure;altitude;pressure_sealevel;temperature;humidity
75697;BME280;64312;44.738;20.612;2023-04-03T00:01:29;99710.44;;;11.20;69.18
75697;BME280;64312;44.738;20.612;2023-04-03T00:03:54;99851.47;;;12.05;69.74
75697;BME280;64312;44.738;20.612;2023-04-03T00:06:22;99834.91;;;11.88;69.76
75697;BME280;64312;44.738;20.612;2023-04-03T00:08:48;99880.31;;;12.11;70.07
75697;BME280;64312;44.738;20.612;2023-04-03T00:11:14;99865.00;;;11.92;70.07
75697;BME280;64312;44.738;20.612;2023-04-03T00:13:41;99821.25;;;11.63;70.58
75697;BME280;64312;44.738;20.612;2023-04-03T00:16:08;99691.25;;;10.77;70.81
75697;BME280;64312;44.738;20.612;2023-04-03T00:18:35;99768.69;;;11.21;70.65
75697;BME280;64312;44.738;20.612;2023-04-03T00:21:01;99680.88;;;10.74;70.88
75697;BME280;64312;44.738;20.612;2023-04-03T00:23:26;99877.03;;;11.89;71.17
75697;BME280;64312;44.738;20.612;2023-04-03T00:25:52;99731.41;;;10.98;70.31
75697;BME280;64312;44.738;20.612;2023-04-03T00:28:18;99831.25;;;11.50;70.87
75697;BME280;64312;44.738;20.612;2023-04-03T00:30:44;99872.91;;;11.87;71.01
75697;BME280;64312;44.738;20.612;2023-04-03T00:33:13;99783.19;;;11.33;71.17
75697;BME280;64312;44.738;20.612;2023-04-03T00:35:40;99747.34;;;11.13;71.49
75697;BME280;64312;44.738;20.612;2023-04-03T00:38:06;99738.44;;;10.99;71.42
75697;BME280;64312;44.738;20.612;2023-04-03T00:40:37;99874.94;;;11.78;71.16
75697;BME280;64312;44.738;20.612;2023-04-03T00:43:11;99636.81;;;10.35;70.90
75697;BME280;64312;44.738;20.612;2023-04-03T00:45:40;99775.75;;;10.96;71.67
75697;BME280;64312;44.738;20.612;2023-04-03T00:48:08;99645.69;;;10.29;71.25
75697;BME280;64312;44.738;20.612;2023-04-03T00:50:39;99887.44;;;11.59;71.71
75697;BME280;64312;44.738;20.612;2023-04-03T00:53:07;99902.13;;;11.70;71.63
75697;BME280;64312;44.738;20.612;2023-04-03T00:55:36;99887.44;;;11.59;71.60
75697;BME280;64312;44.738;20.612;2023-04-03T00:58:03;99681.31;;;10.44;71.78
75697;BME280;64312;44.738;20.612;2023-04-03T01:00:30;99841.59;;;11.46;71.18
75697;BME280;64312;44.738;20.612;2023-04-03T01:02:56;99823.41;;;11.22;71.21
75697;BME280;64312;44.738;20.612;2023-04-03T01:05:22;99916.25;;;11.72;71.51
75697;BME280;64312;44.738;20.612;2023-04-03T01:07:49;99634.50;;;10.06;72.00
75697;BME280;64312;44.738;20.612;2023-04-03T01:10:16;99919.97;;;11.71;71.93
75697;BME280;64312;44.738;20.612;2023-04-03T01:12:46;99908.13;;;11.65;71.91
75697;BME280;64312;44.738;20.612;2023-04-03T01:15:22;99911.28;;;11.62;71.90
75697;BME280;64312;44.738;20.612;2023-04-03T01:17:53;99910.22;;;11.63;71.67
75697;BME280;64312;44.738;20.612;2023-04-03T01:25:38;99908.16;;;11.46;73.06
75697;BME280;64312;44.738;20.612;2023-04-03T01:28:06;99863.59;;;11.17;73.88
75697;BME280;64312;44.738;20.612;2023-04-03T01:30:35;99776.31;;;10.38;74.03
75697;BME280;64312;44.738;20.612;2023-04-03T01:33:02;99909.41;;;11.43;73.87
75697;BME280;64312;44.738;20.612;2023-04-03T01:35:28;99862.13;;;11.07;74.07
75697;BME280;64312;44.738;20.612;2023-04-03T01:37:53;99889.72;;;11.16;73.90
75697;BME280;64312;44.738;20.612;2023-04-03T01:40:19;99807.00;;;10.70;73.61
75697;BME280;64312;44.738;20.612;2023-04-03T01:42:45;99897.81;;;11.29;73.89
75697;BME280;64312;44.738;20.612;2023-04-03T01:45:11;99889.50;;;11.24;73.85
75697;BME280;64312;44.738;20.612;2023-04-03T01:47:37;99800.97;;;10.68;73.64
75697;BME280;64312;44.738;20.612;2023-04-03T01:50:04;99823.41;;;10.82;73.86
75697;BME280;64312;44.738;20.612;2023-04-03T01:52:32;99823.34;;;10.75;74.36
75697;BME280;64312;44.738;20.612;2023-04-03T01:54:57;99656.53;;;9.68;74.60
75697;BME280;64312;44.738;20.612;2023-04-03T01:57:23;99543.50;;;9.02;73.57
75697;BME280;64312;44.738;20.612;2023-04-03T01:59:49;99932.41;;;11.26;74.45
75697;BME280;64312;44.738;20.612;2023-04-03T02:02:15;99875.19;;;10.97;74.31
75697;BME280;64312;44.738;20.612;2023-04-03T02:04:41;99875.34;;;10.63;74.56
75697;BME280;64312;44.738;20.612;2023-04-03T02:07:06;99933.22;;;11.20;74.31
75697;BME280;64312;44.738;20.612;2023-04-03T02:09:32;99878.88;;;10.70;74.05
75697;BME280;64312;44.738;20.612;2023-04-03T02:11:58;99848.38;;;10.56;74.30
75697;BME280;64312;44.738;20.612;2023-04-03T02:14:24;99740.22;;;9.58;73.28
75697;BME280;64312;44.738;20.612;2023-04-03T02:16:50;99941.66;;;10.83;72.66
75697;BME280;64312;44.738;20.612;2023-04-03T02:19:15;99894.72;;;10.38;73.02
75697;BME280;64312;44.738;20.612;2023-04-03T02:21:41;99855.25;;;9.76;72.71
75697;BME280;64312;44.738;20.612;2023-04-03T02:24:07;99885.22;;;10.08;72.21
75697;BME280;64312;44.738;20.612;2023-04-03T02:26:33;99979.16;;;10.37;72.88
75697;BME280;64312;44.738;20.612;2023-04-03T02:28:59;99781.94;;;9.19;72.20
75697;BME280;64312;44.738;20.612;2023-04-03T02:31:24;99905.22;;;9.64;73.10
75697;BME280;64312;44.738;20.612;2023-04-03T02:33:50;99917.88;;;9.70;72.23
75697;BME280;64312;44.738;20.612;2023-04-03T02:36:17;99906.41;;;9.55;73.12
75697;BME280;64312;44.738;20.612;2023-04-03T02:38:48;99955.19;;;9.80;73.01
75697;BME280;64312;44.738;20.612;2023-04-03T02:41:14;99951.72;;;9.64;73.03
75697;BME280;64312;44.738;20.612;2023-04-03T02:43:40;99932.19;;;9.49;73.35
75697;BME280;64312;44.738;20.612;2023-04-03T02:46:06;99933.53;;;9.38;72.59
75697;BME280;64312;44.738;20.612;2023-04-03T02:48:32;99962.22;;;9.59;72.43
75697;BME280;64312;44.738;20.612;2023-04-03T02:50:58;99912.19;;;9.30;71.78
75697;BME280;64312;44.738;20.612;2023-04-03T02:53:24;99750.72;;;8.20;71.80
75697;BME280;64312;44.738;20.612;2023-04-03T02:55:50;99936.28;;;9.45;72.35
75697;BME280;64312;44.738;20.612;2023-04-03T02:58:16;99949.19;;;9.56;71.11
75697;BME280;64312;44.738;20.612;2023-04-03T03:00:41;99896.03;;;9.23;71.45
75697;BME280;64312;44.738;20.612;2023-04-03T03:03:07;99830.03;;;8.65;70.93
75697;BME280;64312;44.738;20.612;2023-04-03T03:05:33;99736.28;;;7.99;71.07
75697;BME280;64312;44.738;20.612;2023-04-03T03:07:59;99843.09;;;8.75;71.43
75697;BME280;64312;44.738;20.612;2023-04-03T03:10:25;99744.47;;;8.12;70.43
75697;BME280;64312;44.738;20.612;2023-04-03T03:12:50;99774.19;;;8.18;70.95
75697;BME280;64312;44.738;20.612;2023-04-03T03:15:16;99958.69;;;9.31;70.48
75697;BME280;64312;44.738;20.612;2023-04-03T03:17:43;99990.75;;;9.54;71.05
75697;BME280;64312;44.738;20.612;2023-04-03T03:20:09;99976.91;;;9.35;69.57
75697;BME280;64312;44.738;20.612;2023-04-03T03:22:35;99812.16;;;8.36;71.34
75697;BME280;64312;44.738;20.612;2023-04-03T03:25:02;99945.44;;;9.08;70.45
75697;BME280;64312;44.738;20.612;2023-04-03T03:27:28;99930.63;;;9.12;70.51
75697;BME280;64312;44.738;20.612;2023-04-03T03:29:54;100010.41;;;9.39;69.99
75697;BME280;64312;44.738;20.612;2023-04-03T03:32:20;99995.00;;;9.27;69.62
75697;BME280;64312;44.738;20.612;2023-04-03T03:34:45;99944.81;;;8.84;71.08
75697;BME280;64312;44.738;20.612;2023-04-03T03:37:11;99837.41;;;8.27;70.40
75697;BME280;64312;44.738;20.612;2023-04-03T03:39:37;99862.47;;;8.34;70.74
75697;BME280;64312;44.738;20.612;2023-04-03T03:42:03;99897.16;;;8.50;70.42
75697;BME280;64312;44.738;20.612;2023-04-03T03:44:29;99986.50;;;9.02;70.78
75697;BME280;64312;44.738;20.612;2023-04-03T03:46:55;99924.63;;;8.52;70.97
75697;BME280;64312;44.738;20.612;2023-04-03T03:49:22;99904.47;;;8.27;71.43
75697;BME280;64312;44.738;20.612;2023-04-03T03:51:47;99871.72;;;8.17;70.89
75697;BME280;64312;44.738;20.612;2023-04-03T03:54:13;100002.44;;;8.88;71.80
75697;BME280;64312;44.738;20.612;2023-04-03T03:56:39;100017.78;;;8.94;72.04
75697;BME280;64312;44.738;20.612;2023-04-03T03:59:05;99987.47;;;8.79;71.19
75697;BME280;64312;44.738;20.612;2023-04-03T04:01:32;99995.88;;;8.91;71.52
75697;BME280;64312;44.738;20.612;2023-04-03T04:03:58;99955.47;;;8.63;70.78
75697;BME280;64312;44.738;20.612;2023-04-03T04:06:28;99948.22;;;8.57;71.95
75697;BME280;64312;44.738;20.612;2023-04-03T04:08:57;99991.63;;;8.82;71.14
75697;BME280;64312;44.738;20.612;2023-04-03T04:11:22;99986.22;;;8.60;71.14
75697;BME280;64312;44.738;20.612;2023-04-03T04:13:50;99981.41;;;8.56;71.02
75697;BME280;64312;44.738;20.612;2023-04-03T04:16:18;99835.81;;;7.81;71.03
75697;BME280;64312;44.738;20.612;2023-04-03T04:18:43;99887.00;;;8.01;70.22
75697;BME280;64312;44.738;20.612;2023-04-03T04:21:09;99949.97;;;8.20;71.03
75697;BME280;64312;44.738;20.612;2023-04-03T04:23:37;100001.66;;;8.58;71.30
75697;BME280;64312;44.738;20.612;2023-04-03T04:26:02;100020.66;;;8.57;71.78
75697;BME280;64312;44.738;20.612;2023-04-03T04:28:32;99963.38;;;8.20;71.67
75697;BME280;64312;44.738;20.612;2023-04-03T04:30:59;100014.03;;;8.74;71.55
75697;BME280;64312;44.738;20.612;2023-04-03T04:33:26;99998.59;;;8.61;71.45
75697;BME280;64312;44.738;20.612;2023-04-03T04:35:52;99942.94;;;8.19;71.91
75697;BME280;64312;44.738;20.612;2023-04-03T04:38:19;100019.50;;;8.66;71.09
75697;BME280;64312;44.738;20.612;2023-04-03T04:40:47;100021.88;;;8.76;72.18
75697;BME280;64312;44.738;20.612;2023-04-03T04:43:14;100032.91;;;8.81;72.35
75697;BME280;64312;44.738;20.612;2023-04-03T04:45:41;99997.31;;;8.57;71.60
75697;BME280;64312;44.738;20.612;2023-04-03T04:48:09;99834.25;;;7.72;72.08
75697;BME280;64312;44.738;20.612;2023-04-03T04:50:34;100044.13;;;8.84;71.40
75697;BME280;64312;44.738;20.612;2023-04-03T04:53:01;99924.44;;;8.09;72.19
75697;BME280;64312;44.738;20.612;2023-04-03T04:55:26;99993.59;;;8.29;71.55
75697;BME280;64312;44.738;20.612;2023-04-03T04:57:52;100033.84;;;8.73;71.70
75697;BME280;64312;44.738;20.612;2023-04-03T05:00:19;99986.97;;;8.25;72.13
75697;BME280;64312;44.738;20.612;2023-04-03T05:02:45;100006.78;;;8.38;72.56
75697;BME280;64312;44.738;20.612;2023-04-03T05:05:11;100058.84;;;8.74;72.54
75697;BME280;64312;44.738;20.612;2023-04-03T05:07:37;99974.75;;;8.37;72.53
75697;BME280;64312;44.738;20.612;2023-04-03T05:10:03;99722.69;;;6.91;71.99
75697;BME280;64312;44.738;20.612;2023-04-03T05:12:32;100003.78;;;8.48;72.44
75697;BME280;64312;44.738;20.612;2023-04-03T05:14:59;100037.75;;;8.71;72.59
75697;BME280;64312;44.738;20.612;2023-04-03T05:17:28;100026.63;;;8.74;73.26
75697;BME280;64312;44.738;20.612;2023-04-03T05:19:55;100037.81;;;8.62;72.84
75697;BME280;64312;44.738;20.612;2023-04-03T05:22:22;100047.56;;;8.63;73.08
75697;BME280;64312;44.738;20.612;2023-04-03T05:24:50;100047.75;;;8.77;72.50
75697;BME280;64312;44.738;20.612;2023-04-03T05:27:16;99937.56;;;8.19;71.97
75697;BME280;64312;44.738;20.612;2023-04-03T05:29:46;100028.84;;;8.55;72.13
75697;BME280;64312;44.738;20.612;2023-04-03T05:32:18;99994.06;;;8.32;72.69
75697;BME280;64312;44.738;20.612;2023-04-03T05:34:49;99774.09;;;7.01;72.76
75697;BME280;64312;44.738;20.612;2023-04-03T05:37:15;99709.66;;;6.35;72.80
75697;BME280;64312;44.738;20.612;2023-04-03T05:39:41;99997.94;;;8.30;72.63
75697;BME280;64312;44.738;20.612;2023-04-03T05:42:09;100021.94;;;8.46;72.67
75697;BME280;64312;44.738;20.612;2023-04-03T05:44:34;99822.13;;;7.32;72.23
75697;BME280;64312;44.738;20.612;2023-04-03T05:47:01;100088.44;;;8.80;71.81
75697;BME280;64312;44.738;20.612;2023-04-03T05:49:26;100064.84;;;8.61;72.24
75697;BME280;64312;44.738;20.612;2023-04-03T05:51:52;100082.16;;;8.73;72.07
75697;BME280;64312;44.738;20.612;2023-04-03T05:54:25;100088.25;;;8.82;72.20
75697;BME280;64312;44.738;20.612;2023-04-03T05:56:57;99935.31;;;7.78;72.27
75697;BME280;64312;44.738;20.612;2023-04-03T05:59:24;100061.63;;;8.51;72.57
75697;BME280;64312;44.738;20.612;2023-04-03T06:01:52;99815.06;;;7.01;72.52
75697;BME280;64312;44.738;20.612;2023-04-03T06:04:18;99849.34;;;7.21;73.45
75697;BME280;64312;44.738;20.612;2023-04-03T06:06:51;99952.13;;;7.72;73.67
75697;BME280;64312;44.738;20.612;2023-04-03T06:09:23;99875.88;;;7.30;73.03
75697;BME280;64312;44.738;20.612;2023-04-03T06:11:48;99827.97;;;6.98;74.54
75697;BME280;64312;44.738;20.612;2023-04-03T06:14:15;100107.69;;;8.54;73.61
75697;BME280;64312;44.738;20.612;2023-04-03T06:16:41;100131.84;;;8.69;74.11
75697;BME280;64312;44.738;20.612;2023-04-03T06:19:08;100045.56;;;8.13;74.55
75697;BME280;64312;44.738;20.612;2023-04-03T06:21:39;100062.97;;;8.32;74.26
75697;BME280;64312;44.738;20.612;2023-04-03T06:24:05;100127.34;;;8.70;74.43
75697;BME280;64312;44.738;20.612;2023-04-03T06:26:32;99989.97;;;7.92;74.91
75697;BME280;64312;44.738;20.612;2023-04-03T06:28:58;100110.03;;;8.57;74.31
75697;BME280;64312;44.738;20.612;2023-04-03T06:31:24;99788.47;;;6.62;74.39
75697;BME280;64312;44.738;20.612;2023-04-03T06:33:49;100059.16;;;8.26;74.78
75697;BME280;64312;44.738;20.612;2023-04-03T06:36:15;100111.47;;;8.45;74.27
75697;BME280;64312;44.738;20.612;2023-04-03T06:38:45;100109.81;;;8.59;74.52
75697;BME280;64312;44.738;20.612;2023-04-03T06:41:11;99920.66;;;7.37;74.18
75697;BME280;64312;44.738;20.612;2023-04-03T06:43:36;99936.13;;;7.49;74.39
75697;BME280;64312;44.738;20.612;2023-04-03T06:46:02;99915.97;;;7.39;73.73
75697;BME280;64312;44.738;20.612;2023-04-03T06:48:29;100118.31;;;8.62;73.43
75697;BME280;64312;44.738;20.612;2023-04-03T06:50:55;100072.16;;;8.37;73.01
75697;BME280;64312;44.738;20.612;2023-04-03T06:53:21;100101.34;;;8.32;73.43
75697;BME280;64312;44.738;20.612;2023-04-03T06:55:46;100012.59;;;7.90;73.09
75697;BME280;64312;44.738;20.612;2023-04-03T06:58:12;100139.06;;;8.54;73.46
75697;BME280;64312;44.738;20.612;2023-04-03T07:00:39;100064.03;;;8.08;72.13
75697;BME280;64312;44.738;20.612;2023-04-03T07:03:05;100103.34;;;8.30;72.23
75697;BME280;64312;44.738;20.612;2023-04-03T07:05:30;100167.53;;;8.55;72.39
75697;BME280;64312;44.738;20.612;2023-04-03T07:07:57;99990.97;;;7.53;72.40
75697;BME280;64312;44.738;20.612;2023-04-03T07:10:23;99910.56;;;7.24;71.78
75697;BME280;64312;44.738;20.612;2023-04-03T07:12:49;99954.34;;;7.54;71.33
75697;BME280;64312;44.738;20.612;2023-04-03T07:15:15;100134.22;;;8.49;71.45
75697;BME280;64312;44.738;20.612;2023-04-03T07:17:40;100151.19;;;8.64;70.59
75697;BME280;64312;44.738;20.612;2023-04-03T07:20:07;100003.19;;;7.56;71.37
75697;BME280;64312;44.738;20.612;2023-04-03T07:22:33;100111.69;;;8.58;69.47
75697;BME280;64312;44.738;20.612;2023-04-03T07:24:59;100106.91;;;8.31;69.62
75697;BME280;64312;44.738;20.612;2023-04-03T07:27:25;100150.94;;;9.04;69.25
75697;BME280;64312;44.738;20.612;2023-04-03T07:29:51;100126.00;;;8.95;70.42
75697;BME280;64312;44.738;20.612;2023-04-03T07:32:17;100164.16;;;9.05;69.46
75697;BME280;64312;44.738;20.612;2023-04-03T07:34:43;100167.78;;;8.98;70.18
75697;BME280;64312;44.738;20.612;2023-04-03T07:37:10;100164.25;;;8.97;68.81
75697;BME280;64312;44.738;20.612;2023-04-03T07:39:35;99990.75;;;7.78;69.12
75697;BME280;64312;44.738;20.612;2023-04-03T07:42:02;100174.72;;;8.92;68.89
75697;BME280;64312;44.738;20.612;2023-04-03T07:44:28;100175.00;;;8.97;67.71
75697;BME280;64312;44.738;20.612;2023-04-03T07:46:54;100058.88;;;8.21;69.13
75697;BME280;64312;44.738;20.612;2023-04-03T07:49:22;100167.78;;;8.83;68.14
75697;BME280;64312;44.738;20.612;2023-04-03T07:51:51;100108.72;;;8.53;68.47
75697;BME280;64312;44.738;20.612;2023-04-03T07:54:18;100136.25;;;8.47;67.65
75697;BME280;64312;44.738;20.612;2023-04-03T07:56:44;100212.00;;;8.87;67.79
75697;BME280;64312;44.738;20.612;2023-04-03T07:59:10;100000.38;;;7.35;66.08
75697;BME280;64312;44.738;20.612;2023-04-03T08:01:37;100143.09;;;8.12;66.16
75697;BME280;64312;44.738;20.612;2023-04-03T08:04:02;100151.25;;;8.19;66.63
75697;BME280;64312;44.738;20.612;2023-04-03T08:06:30;100141.75;;;7.93;66.78
75697;BME280;64312;44.738;20.612;2023-04-03T08:08:58;100215.53;;;8.50;66.41
75697;BME280;64312;44.738;20.612;2023-04-03T08:11:24;100189.31;;;8.37;66.14
75697;BME280;64312;44.738;20.612;2023-04-03T08:13:52;99896.97;;;6.65;66.46
75697;BME280;64312;44.738;20.612;2023-04-03T08:16:20;100200.56;;;8.55;66.57
75697;BME280;64312;44.738;20.612;2023-04-03T08:18:47;100190.44;;;8.65;66.63
75697;BME280;64312;44.738;20.612;2023-04-03T08:21:13;99895.94;;;6.89;65.51
75697;BME280;64312;44.738;20.612;2023-04-03T08:23:40;100087.03;;;8.02;65.80
75697;BME280;64312;44.738;20.612;2023-04-03T08:26:15;100120.25;;;8.16;65.32
75697;BME280;64312;44.738;20.612;2023-04-03T08:28:42;100210.53;;;8.70;66.23
75697;BME280;64312;44.738;20.612;2023-04-03T08:31:10;100148.22;;;8.45;66.40
75697;BME280;64312;44.738;20.612;2023-04-03T08:33:38;100152.91;;;8.43;67.08
75697;BME280;64312;44.738;20.612;2023-04-03T08:36:05;100228.31;;;8.85;66.44
75697;BME280;64312;44.738;20.612;2023-04-03T08:38:31;100208.50;;;8.86;66.18
75697;BME280;64312;44.738;20.612;2023-04-03T08:41:36;100206.44;;;8.88;64.73
75697;BME280;64312;44.738;20.612;2023-04-03T08:49:26;99971.78;;;7.50;65.44
75697;BME280;64312;44.738;20.612;2023-04-03T08:51:54;99886.03;;;6.97;65.67
75697;BME280;64312;44.738;20.612;2023-04-03T08:54:30;99998.41;;;7.66;64.69
75697;BME280;64312;44.738;20.612;2023-04-03T08:56:59;100206.66;;;8.87;64.25
75697;BME280;64312;44.738;20.612;2023-04-03T08:59:30;100222.53;;;8.74;64.03
75697;BME280;64312;44.738;20.612;2023-04-03T09:01:59;100152.75;;;8.44;63.35
75697;BME280;64312;44.738;20.612;2023-04-03T09:04:27;99952.69;;;7.30;63.99
75697;BME280;64312;44.738;20.612;2023-04-03T09:07:08;100145.88;;;8.41;63.58
75697;BME280;64312;44.738;20.612;2023-04-03T09:09:41;99968.97;;;7.20;63.86
75697;BME280;64312;44.738;20.612;2023-04-03T09:12:44;100093.44;;;8.16;63.72
75697;BME280;64312;44.738;20.612;2023-04-03T09:15:18;100097.88;;;8.09;63.18
75697;BME280;64312;44.738;20.612;2023-04-03T09:20:21;100194.00;;;8.95;63.36
75697;BME280;64312;44.738;20.612;2023-04-03T09:22:51;100162.47;;;8.60;61.14
75697;BME280;64312;44.738;20.612;2023-04-03T09:25:33;100195.84;;;9.10;61.68
75697;BME280;64312;44.738;20.612;2023-04-03T09:28:01;100153.34;;;8.99;62.05
75697;BME280;64312;44.738;20.612;2023-04-03T09:30:28;100198.31;;;9.26;60.10
75697;BME280;64312;44.738;20.612;2023-04-03T09:32:56;100191.00;;;9.35;60.17
75697;BME280;64312;44.738;20.612;2023-04-03T09:35:30;100208.09;;;9.63;59.40
75697;BME280;64312;44.738;20.612;2023-04-03T09:40:33;100194.59;;;9.93;59.47
75697;BME280;64312;44.738;20.612;2023-04-03T09:45:41;100111.41;;;9.48;59.32
75697;BME280;64312;44.738;20.612;2023-04-03T09:51:00;100143.59;;;9.85;59.16
75697;BME280;64312;44.738;20.612;2023-04-03T09:58:45;100053.28;;;9.90;57.05
75697;BME280;64312;44.738;20.612;2023-04-03T10:01:27;100184.34;;;11.02;57.30
75697;BME280;64312;44.738;20.612;2023-04-03T10:04:13;100184.34;;;11.02;55.13
75697;BME280;64312;44.738;20.612;2023-04-03T10:14:38;100172.50;;;10.68;55.59
75697;BME280;64312;44.738;20.612;2023-04-03T10:20:02;100187.47;;;11.05;55.57
75697;BME280;64312;44.738;20.612;2023-04-03T10:28:07;100118.03;;;11.07;55.21
75697;BME280;64312;44.738;20.612;2023-04-03T10:30:42;100162.66;;;11.71;54.80
75697;BME280;64312;44.738;20.612;2023-04-03T10:33:22;100159.84;;;11.92;54.69
75697;BME280;64312;44.738;20.612;2023-04-03T10:35:57;100085.50;;;11.70;53.88
75697;BME280;64312;44.738;20.612;2023-04-03T10:46:49;100095.53;;;12.03;53.56
75697;BME280;64312;44.738;20.612;2023-04-03T10:49:38;100129.97;;;12.54;54.22
75697;BME280;64312;44.738;20.612;2023-04-03T10:52:22;99977.03;;;12.01;52.66
75697;BME280;64312;44.738;20.612;2023-04-03T10:55:22;100139.06;;;12.92;51.43
75697;BME280;64312;44.738;20.612;2023-04-03T10:57:50;100126.81;;;12.90;51.61
75697;BME280;64312;44.738;20.612;2023-04-03T11:00:18;100154.06;;;12.88;50.70
75697;BME280;64312;44.738;20.612;2023-04-03T11:02:51;100127.81;;;13.02;50.77
75697;BME280;64312;44.738;20.612;2023-04-03T11:05:18;100016.63;;;12.27;50.88
75697;BME280;64312;44.738;20.612;2023-04-03T11:07:52;100077.81;;;12.73;50.59
75697;BME280;64312;44.738;20.612;2023-04-03T11:10:44;99801.84;;;11.28;50.18
75697;BME280;64312;44.738;20.612;2023-04-03T11:13:14;100099.56;;;12.91;50.41
75697;BME280;64312;44.738;20.612;2023-04-03T11:15:43;99861.28;;;10.94;51.03
75697;BME280;64312;44.738;20.612;2023-04-03T11:18:19;99992.75;;;11.58;51.35
75697;BME280;64312;44.738;20.612;2023-04-03T11:23:41;99898.97;;;10.80;54.40
75697;BME280;64312;44.738;20.612;2023-04-03T11:26:10;100031.59;;;11.83;54.62
75697;BME280;64312;44.738;20.612;2023-04-03T11:28:37;99972.88;;;11.72;52.95
75697;BME280;64312;44.738;20.612;2023-04-03T11:31:33;100091.94;;;12.68;51.52
75697;BME280;64312;44.738;20.612;2023-04-03T11:36:44;100018.91;;;12.17;53.25
75697;BME280;64312;44.738;20.612;2023-04-03T11:39:23;99839.34;;;11.23;52.53
75697;BME280;64312;44.738;20.612;2023-04-03T11:41:51;99990.44;;;12.41;51.71
75697;BME280;64312;44.738;20.612;2023-04-03T11:44:37;100077.50;;;13.08;52.16
75697;BME280;64312;44.738;20.612;2023-04-03T11:47:06;100009.91;;;12.69;51.70
75697;BME280;64312;44.738;20.612;2023-04-03T11:58:13;100021.16;;;12.53;51.88
75697;BME280;64312;44.738;20.612;2023-04-03T12:08:49;100029.41;;;12.71;51.04
75697;BME280;64312;44.738;20.612;2023-04-03T12:11:30;99942.78;;;12.08;50.65
75697;BME280;64312;44.738;20.612;2023-04-03T12:45:23;100075.13;;;12.60;55.23
75697;BME280;64312;44.738;20.612;2023-04-03T12:47:51;100034.03;;;12.51;54.24
75697;BME280;64312;44.738;20.612;2023-04-03T12:50:21;99979.31;;;12.17;54.56
75697;BME280;64312;44.738;20.612;2023-04-03T12:52:57;99854.06;;;11.34;54.01
75697;BME280;64312;44.738;20.612;2023-04-03T12:55:25;100024.53;;;12.22;53.90
75697;BME280;64312;44.738;20.612;2023-04-03T12:57:50;100034.47;;;12.28;53.43
75697;BME280;64312;44.738;20.612;2023-04-03T13:00:22;100051.28;;;12.43;53.15
75697;BME280;64312;44.738;20.612;2023-04-03T13:02:48;99983.47;;;12.00;53.39
75697;BME280;64312;44.738;20.612;2023-04-03T13:05:17;100005.03;;;12.07;52.83
75697;BME280;64312;44.738;20.612;2023-04-03T13:07:44;100059.22;;;12.18;53.87
75697;BME280;64312;44.738;20.612;2023-04-03T13:10:18;100021.84;;;12.09;54.04
75697;BME280;64312;44.738;20.612;2023-04-03T13:15:19;100038.22;;;12.20;55.12
75697;BME280;64312;44.738;20.612;2023-04-03T13:17:46;99956.28;;;11.62;55.20
75697;BME280;64312;44.738;20.612;2023-04-03T13:20:34;100051.53;;;12.15;54.32
75697;BME280;64312;44.738;20.612;2023-04-03T13:23:05;99745.09;;;10.50;54.96
75697;BME280;64312;44.738;20.612;2023-04-03T13:25:36;99985.13;;;11.95;55.08
75697;BME280;64312;44.738;20.612;2023-04-03T13:28:07;100017.47;;;12.21;55.45
75697;BME280;64312;44.738;20.612;2023-04-03T13:30:35;99829.63;;;11.09;54.49
75697;BME280;64312;44.738;20.612;2023-04-03T13:33:05;100004.19;;;12.26;54.44
75697;BME280;64312;44.738;20.612;2023-04-03T13:35:38;99941.16;;;11.81;54.14
75697;BME280;64312;44.738;20.612;2023-04-03T13:40:52;99900.06;;;11.59;53.86
75697;BME280;64312;44.738;20.612;2023-04-03T13:43:25;99845.78;;;11.29;53.84
75697;BME280;64312;44.738;20.612;2023-04-03T13:48:26;99782.78;;;10.97;53.87
75697;BME280;64312;44.738;20.612;2023-04-03T13:50:59;100026.78;;;12.45;54.60
75697;BME280;64312;44.738;20.612;2023-04-03T13:53:26;100000.41;;;12.40;53.94
75697;BME280;64312;44.738;20.612;2023-04-03T13:55:55;100003.13;;;12.34;53.46
75697;BME280;64312;44.738;20.612;2023-04-03T13:58:28;99938.44;;;11.87;53.54
75697;BME280;64312;44.738;20.612;2023-04-03T14:01:08;99994.00;;;12.22;53.97
75697;BME280;64312;44.738;20.612;2023-04-03T14:03:45;99981.31;;;12.29;53.66
75697;BME280;64312;44.738;20.612;2023-04-03T14:06:15;99955.88;;;11.85;53.49
75697;BME280;64312;44.738;20.612;2023-04-03T14:08:43;99956.69;;;12.05;54.06
75697;BME280;64312;44.738;20.612;2023-04-03T14:11:16;99723.34;;;10.78;54.09
75697;BME280;64312;44.738;20.612;2023-04-03T14:13:43;99972.63;;;12.20;53.28
75697;BME280;64312;44.738;20.612;2023-04-03T14:16:13;99763.72;;;10.98;54.57
75697;BME280;64312;44.738;20.612;2023-04-03T14:18:40;99788.56;;;11.20;54.56
75697;BME280;64312;44.738;20.612;2023-04-03T14:21:06;99742.41;;;10.90;54.19
75697;BME280;64312;44.738;20.612;2023-04-03T14:23:31;99752.13;;;10.98;54.09
75697;BME280;64312;44.738;20.612;2023-04-03T14:25:58;99962.91;;;12.06;52.19
75697;BME280;64312;44.738;20.612;2023-04-03T14:28:25;99927.88;;;11.92;53.88
75697;BME280;64312;44.738;20.612;2023-04-03T14:30:51;99950.28;;;11.86;53.10
75697;BME280;64312;44.738;20.612;2023-04-03T14:33:20;99983.03;;;12.10;53.46
75697;BME280;64312;44.738;20.612;2023-04-03T14:35:47;99987.81;;;12.01;52.35
75697;BME280;64312;44.738;20.612;2023-04-03T14:38:29;99749.66;;;10.63;51.78
75697;BME280;64312;44.738;20.612;2023-04-03T14:40:57;99787.75;;;10.87;52.91
75697;BME280;64312;44.738;20.612;2023-04-03T14:43:22;99964.16;;;11.97;53.43
75697;BME280;64312;44.738;20.612;2023-04-03T14:45:49;99862.16;;;11.34;52.53
75697;BME280;64312;44.738;20.612;2023-04-03T14:48:24;99844.31;;;11.20;51.82
75697;BME280;64312;44.738;20.612;2023-04-03T14:50:51;99898.03;;;11.41;52.94
75697;BME280;64312;44.738;20.612;2023-04-03T14:53:17;99971.41;;;11.70;52.82